X  Blizu METAR Podaci o vazduhoplovstvu     EDDC Dresden Airport
Temperatura
17°C Temperatura
5°C Tačka Rose
45% Vlaga



Vetar
3 M/S
7 MPS
11 KM/S
6 Čvorovi



300°
ZSZ
Trenutna situacija

Vedro Vedro
Vazdušni pritisak 1015.92 (hPa) - 30 (inHg)
Vidljivost 6 (Milje) - 9.7 (km)
Aerodrom
Aerodromski kod. EDDC

Lokacija: Dresden Airport
Udaljenost: 122 (km)

Metar:
EDDC 121720Z AUTO 30006KT 260V340 CAVOK 17/05 Q1016 NOSIG

Vreme: 12-06-2024 19:20 CEST